sensor_id;sensor_type;location;lat;lon;timestamp;P1;durP1;ratioP1;P2;durP2;ratioP2
74945;SDS011;63509;45.250;38.102;2023-12-28T00:02:03;9.00;;;1.70;;
74945;SDS011;63509;45.250;38.102;2023-12-28T00:04:29;3.22;;;1.83;;
74945;SDS011;63509;45.250;38.102;2023-12-28T00:07:13;4.50;;;1.50;;
74945;SDS011;63509;45.250;38.102;2023-12-28T00:09:40;2.15;;;1.48;;
74945;SDS011;63509;45.250;38.102;2023-12-28T00:12:18;5.40;;;1.20;;
74945;SDS011;63509;45.250;38.102;2023-12-28T00:14:44;3.80;;;2.10;;
74945;SDS011;63509;45.250;38.102;2023-12-28T00:17:13;4.43;;;2.05;;
74945;SDS011;63509;45.250;38.102;2023-12-28T00:19:40;4.97;;;2.50;;
74945;SDS011;63509;45.250;38.102;2023-12-28T00:22:12;5.95;;;2.50;;
74945;SDS011;63509;45.250;38.102;2023-12-28T00:24:38;4.75;;;2.20;;
74945;SDS011;63509;45.250;38.102;2023-12-28T00:27:04;4.72;;;2.83;;
74945;SDS011;63509;45.250;38.102;2023-12-28T00:29:30;4.45;;;2.60;;
74945;SDS011;63509;45.250;38.102;2023-12-28T00:31:56;6.82;;;3.60;;
74945;SDS011;63509;45.250;38.102;2023-12-28T00:34:22;7.20;;;2.60;;
74945;SDS011;63509;45.250;38.102;2023-12-28T00:36:48;7.70;;;2.70;;
74945;SDS011;63509;45.250;38.102;2023-12-28T00:39:14;6.15;;;2.30;;
74945;SDS011;63509;45.250;38.102;2023-12-28T00:41:41;3.35;;;1.85;;
74945;SDS011;63509;45.250;38.102;2023-12-28T00:44:07;3.97;;;2.35;;
74945;SDS011;63509;45.250;38.102;2023-12-28T00:46:36;8.68;;;2.72;;
74945;SDS011;63509;45.250;38.102;2023-12-28T00:49:04;7.30;;;2.10;;
74945;SDS011;63509;45.250;38.102;2023-12-28T00:51:30;3.20;;;1.33;;
74945;SDS011;63509;45.250;38.102;2023-12-28T00:53:56;5.47;;;2.75;;
74945;SDS011;63509;45.250;38.102;2023-12-28T00:56:31;8.10;;;2.60;;
74945;SDS011;63509;45.250;38.102;2023-12-28T01:01:23;4.15;;;1.70;;
74945;SDS011;63509;45.250;38.102;2023-12-28T01:03:49;5.03;;;1.33;;
74945;SDS011;63509;45.250;38.102;2023-12-28T01:06:24;2.55;;;0.95;;
74945;SDS011;63509;45.250;38.102;2023-12-28T01:08:55;2.40;;;1.13;;
74945;SDS011;63509;45.250;38.102;2023-12-28T01:11:21;1.80;;;0.93;;
74945;SDS011;63509;45.250;38.102;2023-12-28T01:13:48;2.63;;;1.08;;
74945;SDS011;63509;45.250;38.102;2023-12-28T01:16:32;4.65;;;1.05;;
74945;SDS011;63509;45.250;38.102;2023-12-28T01:18:59;6.20;;;1.63;;
74945;SDS011;63509;45.250;38.102;2023-12-28T01:21:40;8.05;;;2.33;;
74945;SDS011;63509;45.250;38.102;2023-12-28T01:24:06;4.20;;;2.22;;
74945;SDS011;63509;45.250;38.102;2023-12-28T01:26:32;8.35;;;1.52;;
74945;SDS011;63509;45.250;38.102;2023-12-28T01:29:00;4.68;;;2.33;;
74945;SDS011;63509;45.250;38.102;2023-12-28T01:31:33;3.50;;;1.30;;
74945;SDS011;63509;45.250;38.102;2023-12-28T01:34:05;4.65;;;1.13;;
74945;SDS011;63509;45.250;38.102;2023-12-28T01:37:16;5.85;;;1.17;;
74945;SDS011;63509;45.250;38.102;2023-12-28T01:39:51;1.00;;;0.50;;
74945;SDS011;63509;45.250;38.102;2023-12-28T01:42:23;3.25;;;1.10;;
74945;SDS011;63509;45.250;38.102;2023-12-28T01:45:01;1.75;;;1.08;;
74945;SDS011;63509;45.250;38.102;2023-12-28T01:47:27;2.65;;;0.98;;
74945;SDS011;63509;45.250;38.102;2023-12-28T01:50:06;2.47;;;0.88;;
74945;SDS011;63509;45.250;38.102;2023-12-28T01:52:36;1.38;;;0.77;;
74945;SDS011;63509;45.250;38.102;2023-12-28T01:55:03;5.35;;;1.00;;
74945;SDS011;63509;45.250;38.102;2023-12-28T01:57:30;1.73;;;0.28;;
74945;SDS011;63509;45.250;38.102;2023-12-28T01:59:56;7.43;;;1.00;;
74945;SDS011;63509;45.250;38.102;2023-12-28T02:02:38;4.55;;;1.10;;
74945;SDS011;63509;45.250;38.102;2023-12-28T02:05:04;9.60;;;1.67;;
74945;SDS011;63509;45.250;38.102;2023-12-28T02:07:31;2.33;;;0.80;;
74945;SDS011;63509;45.250;38.102;2023-12-28T02:09:58;3.53;;;0.63;;
74945;SDS011;63509;45.250;38.102;2023-12-28T02:12:28;5.20;;;1.25;;
74945;SDS011;63509;45.250;38.102;2023-12-28T02:14:54;1.13;;;1.00;;
74945;SDS011;63509;45.250;38.102;2023-12-28T02:17:22;0.63;;;0.25;;
74945;SDS011;63509;45.250;38.102;2023-12-28T02:19:56;1.50;;;0.82;;
74945;SDS011;63509;45.250;38.102;2023-12-28T02:22:24;5.05;;;1.02;;
74945;SDS011;63509;45.250;38.102;2023-12-28T02:25:08;5.10;;;1.38;;
74945;SDS011;63509;45.250;38.102;2023-12-28T02:27:38;5.13;;;0.70;;
74945;SDS011;63509;45.250;38.102;2023-12-28T02:30:36;2.75;;;1.00;;
74945;SDS011;63509;45.250;38.102;2023-12-28T02:36:02;3.83;;;1.20;;
74945;SDS011;63509;45.250;38.102;2023-12-28T02:38:32;3.55;;;1.58;;
74945;SDS011;63509;45.250;38.102;2023-12-28T02:41:02;2.38;;;1.65;;
74945;SDS011;63509;45.250;38.102;2023-12-28T02:43:35;4.82;;;1.70;;
74945;SDS011;63509;45.250;38.102;2023-12-28T02:46:01;4.90;;;1.60;;
74945;SDS011;63509;45.250;38.102;2023-12-28T02:48:27;2.90;;;1.50;;
74945;SDS011;63509;45.250;38.102;2023-12-28T02:50:53;8.30;;;1.52;;
74945;SDS011;63509;45.250;38.102;2023-12-28T02:53:20;2.92;;;1.52;;
74945;SDS011;63509;45.250;38.102;2023-12-28T02:55:46;4.72;;;2.35;;
74945;SDS011;63509;45.250;38.102;2023-12-28T02:58:18;4.60;;;2.95;;
74945;SDS011;63509;45.250;38.102;2023-12-28T03:00:45;4.63;;;2.53;;
74945;SDS011;63509;45.250;38.102;2023-12-28T03:03:14;5.05;;;2.70;;
74945;SDS011;63509;45.250;38.102;2023-12-28T03:05:40;12.43;;;3.38;;
74945;SDS011;63509;45.250;38.102;2023-12-28T03:08:06;5.00;;;3.30;;
74945;SDS011;63509;45.250;38.102;2023-12-28T03:10:33;7.95;;;1.95;;
74945;SDS011;63509;45.250;38.102;2023-12-28T03:12:59;8.07;;;1.30;;
74945;SDS011;63509;45.250;38.102;2023-12-28T03:15:26;3.85;;;1.00;;
74945;SDS011;63509;45.250;38.102;2023-12-28T03:20:37;5.72;;;1.75;;
74945;SDS011;63509;45.250;38.102;2023-12-28T03:23:05;4.13;;;1.08;;
74945;SDS011;63509;45.250;38.102;2023-12-28T03:25:31;1.95;;;0.77;;
74945;SDS011;63509;45.250;38.102;2023-12-28T03:27:57;2.85;;;0.90;;
74945;SDS011;63509;45.250;38.102;2023-12-28T03:30:29;3.45;;;1.30;;
74945;SDS011;63509;45.250;38.102;2023-12-28T03:33:04;6.32;;;1.83;;
74945;SDS011;63509;45.250;38.102;2023-12-28T03:35:30;2.30;;;1.40;;
74945;SDS011;63509;45.250;38.102;2023-12-28T03:38:02;4.00;;;1.50;;
74945;SDS011;63509;45.250;38.102;2023-12-28T03:40:29;6.35;;;1.45;;
74945;SDS011;63509;45.250;38.102;2023-12-28T03:42:55;4.80;;;0.77;;
74945;SDS011;63509;45.250;38.102;2023-12-28T03:45:21;22.00;;;1.38;;
74945;SDS011;63509;45.250;38.102;2023-12-28T03:47:50;7.43;;;1.15;;
74945;SDS011;63509;45.250;38.102;2023-12-28T03:50:16;3.80;;;1.70;;
74945;SDS011;63509;45.250;38.102;2023-12-28T03:52:43;11.57;;;2.17;;
74945;SDS011;63509;45.250;38.102;2023-12-28T03:55:09;4.45;;;1.42;;
74945;SDS011;63509;45.250;38.102;2023-12-28T04:00:29;16.60;;;2.47;;
74945;SDS011;63509;45.250;38.102;2023-12-28T04:02:57;3.13;;;1.70;;
74945;SDS011;63509;45.250;38.102;2023-12-28T04:05:25;4.63;;;1.50;;
74945;SDS011;63509;45.250;38.102;2023-12-28T04:07:51;1.75;;;0.80;;
74945;SDS011;63509;45.250;38.102;2023-12-28T04:10:32;4.15;;;0.98;;
74945;SDS011;63509;45.250;38.102;2023-12-28T04:12:59;1.50;;;0.88;;
74945;SDS011;63509;45.250;38.102;2023-12-28T04:15:25;2.63;;;0.95;;
74945;SDS011;63509;45.250;38.102;2023-12-28T04:17:52;1.92;;;0.80;;
74945;SDS011;63509;45.250;38.102;2023-12-28T04:20:24;9.27;;;1.30;;
74945;SDS011;63509;45.250;38.102;2023-12-28T04:22:50;2.08;;;0.80;;
74945;SDS011;63509;45.250;38.102;2023-12-28T04:25:16;2.58;;;0.73;;
74945;SDS011;63509;45.250;38.102;2023-12-28T04:27:42;4.53;;;1.48;;
74945;SDS011;63509;45.250;38.102;2023-12-28T04:30:18;3.17;;;1.35;;
74945;SDS011;63509;45.250;38.102;2023-12-28T04:32:45;3.53;;;1.13;;
74945;SDS011;63509;45.250;38.102;2023-12-28T04:35:11;1.75;;;0.85;;
74945;SDS011;63509;45.250;38.102;2023-12-28T04:37:37;2.80;;;1.30;;
74945;SDS011;63509;45.250;38.102;2023-12-28T04:40:03;3.38;;;1.23;;
74945;SDS011;63509;45.250;38.102;2023-12-28T04:42:36;2.88;;;1.30;;
74945;SDS011;63509;45.250;38.102;2023-12-28T04:45:02;4.95;;;1.13;;
74945;SDS011;63509;45.250;38.102;2023-12-28T04:47:29;5.97;;;3.15;;
74945;SDS011;63509;45.250;38.102;2023-12-28T04:49:57;5.00;;;3.10;;
74945;SDS011;63509;45.250;38.102;2023-12-28T04:52:23;5.60;;;2.47;;
74945;SDS011;63509;45.250;38.102;2023-12-28T04:54:49;4.68;;;1.95;;
74945;SDS011;63509;45.250;38.102;2023-12-28T04:57:16;3.15;;;1.30;;
74945;SDS011;63509;45.250;38.102;2023-12-28T04:59:42;5.43;;;1.27;;
74945;SDS011;63509;45.250;38.102;2023-12-28T05:02:17;2.30;;;0.82;;
74945;SDS011;63509;45.250;38.102;2023-12-28T05:04:43;3.60;;;1.25;;
74945;SDS011;63509;45.250;38.102;2023-12-28T05:07:17;3.70;;;1.20;;
74945;SDS011;63509;45.250;38.102;2023-12-28T05:09:44;3.20;;;0.80;;
74945;SDS011;63509;45.250;38.102;2023-12-28T05:12:13;7.13;;;1.05;;
74945;SDS011;63509;45.250;38.102;2023-12-28T05:17:05;3.55;;;1.45;;
74945;SDS011;63509;45.250;38.102;2023-12-28T05:19:31;5.18;;;1.52;;
74945;SDS011;63509;45.250;38.102;2023-12-28T05:21:57;3.17;;;1.38;;
74945;SDS011;63509;45.250;38.102;2023-12-28T05:24:49;3.08;;;1.70;;
74945;SDS011;63509;45.250;38.102;2023-12-28T05:27:14;10.02;;;1.48;;
74945;SDS011;63509;45.250;38.102;2023-12-28T05:29:41;3.38;;;1.52;;
74945;SDS011;63509;45.250;38.102;2023-12-28T05:32:07;8.85;;;1.92;;
74945;SDS011;63509;45.250;38.102;2023-12-28T05:37:16;4.97;;;1.25;;
74945;SDS011;63509;45.250;38.102;2023-12-28T05:39:52;3.67;;;1.23;;
74945;SDS011;63509;45.250;38.102;2023-12-28T05:44:47;2.05;;;1.08;;
74945;SDS011;63509;45.250;38.102;2023-12-28T05:47:22;3.53;;;1.90;;
74945;SDS011;63509;45.250;38.102;2023-12-28T05:49:49;3.30;;;1.80;;
74945;SDS011;63509;45.250;38.102;2023-12-28T05:52:21;2.67;;;1.20;;
74945;SDS011;63509;45.250;38.102;2023-12-28T05:54:47;2.38;;;1.10;;
74945;SDS011;63509;45.250;38.102;2023-12-28T05:57:39;12.23;;;2.10;;
74945;SDS011;63509;45.250;38.102;2023-12-28T06:00:05;3.65;;;1.38;;
74945;SDS011;63509;45.250;38.102;2023-12-28T06:02:37;8.13;;;1.98;;
74945;SDS011;63509;45.250;38.102;2023-12-28T06:05:04;3.47;;;1.10;;
74945;SDS011;63509;45.250;38.102;2023-12-28T06:07:30;8.95;;;1.73;;
74945;SDS011;63509;45.250;38.102;2023-12-28T06:10:06;5.35;;;1.45;;
74945;SDS011;63509;45.250;38.102;2023-12-28T06:12:33;2.80;;;1.23;;
74945;SDS011;63509;45.250;38.102;2023-12-28T06:14:59;3.35;;;1.05;;
74945;SDS011;63509;45.250;38.102;2023-12-28T06:17:25;4.03;;;1.40;;
74945;SDS011;63509;45.250;38.102;2023-12-28T06:19:51;1.85;;;0.90;;
74945;SDS011;63509;45.250;38.102;2023-12-28T06:22:17;3.13;;;1.63;;
74945;SDS011;63509;45.250;38.102;2023-12-28T06:24:44;3.30;;;1.42;;
74945;SDS011;63509;45.250;38.102;2023-12-28T06:27:17;5.97;;;1.52;;
74945;SDS011;63509;45.250;38.102;2023-12-28T06:29:46;18.05;;;1.40;;
74945;SDS011;63509;45.250;38.102;2023-12-28T06:32:21;4.75;;;1.33;;
74945;SDS011;63509;45.250;38.102;2023-12-28T06:34:47;8.80;;;2.05;;
74945;SDS011;63509;45.250;38.102;2023-12-28T06:37:14;3.50;;;1.48;;
74945;SDS011;63509;45.250;38.102;2023-12-28T06:39:46;7.18;;;2.78;;
74945;SDS011;63509;45.250;38.102;2023-12-28T06:42:15;5.75;;;3.63;;
74945;SDS011;63509;45.250;38.102;2023-12-28T06:44:41;7.72;;;4.43;;
74945;SDS011;63509;45.250;38.102;2023-12-28T06:47:13;4.57;;;2.78;;
74945;SDS011;63509;45.250;38.102;2023-12-28T06:49:39;3.38;;;1.63;;
74945;SDS011;63509;45.250;38.102;2023-12-28T06:52:05;5.60;;;1.42;;
74945;SDS011;63509;45.250;38.102;2023-12-28T06:54:34;5.75;;;1.95;;
74945;SDS011;63509;45.250;38.102;2023-12-28T06:57:09;2.22;;;1.45;;
74945;SDS011;63509;45.250;38.102;2023-12-28T06:59:35;4.60;;;1.95;;
74945;SDS011;63509;45.250;38.102;2023-12-28T07:02:02;3.28;;;1.23;;
74945;SDS011;63509;45.250;38.102;2023-12-28T07:04:31;8.00;;;1.60;;
74945;SDS011;63509;45.250;38.102;2023-12-28T07:07:01;3.75;;;1.33;;
74945;SDS011;63509;45.250;38.102;2023-12-28T07:09:27;7.00;;;1.73;;
74945;SDS011;63509;45.250;38.102;2023-12-28T07:11:56;4.30;;;1.50;;
74945;SDS011;63509;45.250;38.102;2023-12-28T07:14:22;9.02;;;2.00;;
74945;SDS011;63509;45.250;38.102;2023-12-28T07:17:00;5.35;;;1.20;;
74945;SDS011;63509;45.250;38.102;2023-12-28T07:19:41;4.38;;;0.98;;
74945;SDS011;63509;45.250;38.102;2023-12-28T07:22:15;8.45;;;2.15;;
74945;SDS011;63509;45.250;38.102;2023-12-28T07:24:41;16.77;;;3.75;;
74945;SDS011;63509;45.250;38.102;2023-12-28T07:27:08;8.07;;;2.22;;
74945;SDS011;63509;45.250;38.102;2023-12-28T07:29:34;6.15;;;1.63;;
74945;SDS011;63509;45.250;38.102;2023-12-28T07:32:00;7.03;;;1.77;;
74945;SDS011;63509;45.250;38.102;2023-12-28T07:34:26;6.03;;;1.10;;
74945;SDS011;63509;45.250;38.102;2023-12-28T07:36:52;2.05;;;1.00;;
74945;SDS011;63509;45.250;38.102;2023-12-28T07:39:18;6.78;;;0.82;;
74945;SDS011;63509;45.250;38.102;2023-12-28T07:41:44;6.60;;;1.38;;
74945;SDS011;63509;45.250;38.102;2023-12-28T07:44:11;7.82;;;1.65;;
74945;SDS011;63509;45.250;38.102;2023-12-28T07:46:37;8.70;;;1.27;;
74945;SDS011;63509;45.250;38.102;2023-12-28T07:49:04;9.23;;;1.95;;
74945;SDS011;63509;45.250;38.102;2023-12-28T07:51:30;23.90;;;2.38;;
74945;SDS011;63509;45.250;38.102;2023-12-28T07:53:56;2.88;;;0.93;;
74945;SDS011;63509;45.250;38.102;2023-12-28T07:56:23;10.27;;;1.52;;
74945;SDS011;63509;45.250;38.102;2023-12-28T07:58:49;6.70;;;1.38;;
74945;SDS011;63509;45.250;38.102;2023-12-28T08:01:15;8.65;;;1.33;;
74945;SDS011;63509;45.250;38.102;2023-12-28T08:03:41;14.57;;;1.10;;
74945;SDS011;63509;45.250;38.102;2023-12-28T08:06:07;7.40;;;2.17;;
74945;SDS011;63509;45.250;38.102;2023-12-28T08:08:34;3.90;;;1.92;;
74945;SDS011;63509;45.250;38.102;2023-12-28T08:11:00;6.80;;;1.90;;
74945;SDS011;63509;45.250;38.102;2023-12-28T08:13:26;8.95;;;2.17;;
74945;SDS011;63509;45.250;38.102;2023-12-28T08:15:52;4.78;;;1.08;;
74945;SDS011;63509;45.250;38.102;2023-12-28T08:18:19;3.10;;;1.65;;
74945;SDS011;63509;45.250;38.102;2023-12-28T08:20:45;3.00;;;1.02;;
74945;SDS011;63509;45.250;38.102;2023-12-28T08:23:12;3.60;;;1.05;;
74945;SDS011;63509;45.250;38.102;2023-12-28T08:25:38;10.45;;;1.35;;
74945;SDS011;63509;45.250;38.102;2023-12-28T08:28:06;4.35;;;1.17;;
74945;SDS011;63509;45.250;38.102;2023-12-28T08:30:33;3.05;;;1.00;;
74945;SDS011;63509;45.250;38.102;2023-12-28T08:32:59;6.10;;;1.73;;
74945;SDS011;63509;45.250;38.102;2023-12-28T08:35:25;4.25;;;1.40;;
74945;SDS011;63509;45.250;38.102;2023-12-28T08:37:52;6.88;;;1.20;;
74945;SDS011;63509;45.250;38.102;2023-12-28T08:40:18;2.97;;;1.45;;
74945;SDS011;63509;45.250;38.102;2023-12-28T08:42:44;4.80;;;1.50;;
74945;SDS011;63509;45.250;38.102;2023-12-28T08:45:10;2.65;;;0.90;;
74945;SDS011;63509;45.250;38.102;2023-12-28T08:47:37;4.57;;;1.02;;
74945;SDS011;63509;45.250;38.102;2023-12-28T08:50:03;2.13;;;0.90;;
74945;SDS011;63509;45.250;38.102;2023-12-28T08:52:31;4.03;;;1.00;;
74945;SDS011;63509;45.250;38.102;2023-12-28T08:54:59;5.30;;;1.65;;
74945;SDS011;63509;45.250;38.102;2023-12-28T08:57:28;3.08;;;1.25;;
74945;SDS011;63509;45.250;38.102;2023-12-28T08:59:54;5.35;;;1.48;;
74945;SDS011;63509;45.250;38.102;2023-12-28T09:02:23;4.90;;;1.20;;
74945;SDS011;63509;45.250;38.102;2023-12-28T09:05:04;4.90;;;1.40;;
74945;SDS011;63509;45.250;38.102;2023-12-28T09:07:31;7.07;;;1.30;;
74945;SDS011;63509;45.250;38.102;2023-12-28T09:09:57;2.88;;;1.48;;
74945;SDS011;63509;45.250;38.102;2023-12-28T09:12:26;3.03;;;1.33;;
74945;SDS011;63509;45.250;38.102;2023-12-28T09:14:53;5.13;;;1.02;;
74945;SDS011;63509;45.250;38.102;2023-12-28T09:17:23;5.75;;;1.48;;
74945;SDS011;63509;45.250;38.102;2023-12-28T09:19:52;10.82;;;1.00;;
74945;SDS011;63509;45.250;38.102;2023-12-28T09:22:18;2.00;;;1.08;;
74945;SDS011;63509;45.250;38.102;2023-12-28T09:24:45;1.50;;;0.57;;
74945;SDS011;63509;45.250;38.102;2023-12-28T09:27:11;3.80;;;1.02;;
74945;SDS011;63509;45.250;38.102;2023-12-28T09:29:37;6.43;;;1.23;;
74945;SDS011;63509;45.250;38.102;2023-12-28T09:32:03;3.83;;;0.90;;
74945;SDS011;63509;45.250;38.102;2023-12-28T09:34:41;3.53;;;0.90;;
74945;SDS011;63509;45.250;38.102;2023-12-28T09:37:07;5.60;;;1.00;;
74945;SDS011;63509;45.250;38.102;2023-12-28T09:39:33;2.00;;;0.85;;
74945;SDS011;63509;45.250;38.102;2023-12-28T09:42:00;2.90;;;0.88;;
74945;SDS011;63509;45.250;38.102;2023-12-28T09:44:32;1.80;;;0.80;;
74945;SDS011;63509;45.250;38.102;2023-12-28T09:47:03;2.20;;;0.60;;
74945;SDS011;63509;45.250;38.102;2023-12-28T09:49:32;3.08;;;0.80;;
74945;SDS011;63509;45.250;38.102;2023-12-28T09:51:59;2.00;;;0.88;;
74945;SDS011;63509;45.250;38.102;2023-12-28T09:54:25;3.10;;;1.05;;
74945;SDS011;63509;45.250;38.102;2023-12-28T09:56:52;1.73;;;0.77;;
74945;SDS011;63509;45.250;38.102;2023-12-28T09:59:19;6.03;;;0.70;;
74945;SDS011;63509;45.250;38.102;2023-12-28T10:01:46;1.88;;;0.60;;
74945;SDS011;63509;45.250;38.102;2023-12-28T10:04:13;3.63;;;1.40;;
74945;SDS011;63509;45.250;38.102;2023-12-28T10:06:41;3.03;;;1.20;;
74945;SDS011;63509;45.250;38.102;2023-12-28T10:09:07;1.80;;;0.60;;
74945;SDS011;63509;45.250;38.102;2023-12-28T10:11:37;5.75;;;0.77;;
74945;SDS011;63509;45.250;38.102;2023-12-28T10:14:03;2.47;;;0.60;;
74945;SDS011;63509;45.250;38.102;2023-12-28T10:16:30;2.13;;;1.20;;
74945;SDS011;63509;45.250;38.102;2023-12-28T10:18:56;9.88;;;1.63;;
74945;SDS011;63509;45.250;38.102;2023-12-28T10:21:23;2.30;;;0.88;;
74945;SDS011;63509;45.250;38.102;2023-12-28T10:23:49;6.72;;;1.13;;
74945;SDS011;63509;45.250;38.102;2023-12-28T10:26:18;2.55;;;0.82;;
74945;SDS011;63509;45.250;38.102;2023-12-28T10:28:44;1.65;;;0.77;;
74945;SDS011;63509;45.250;38.102;2023-12-28T10:31:14;7.72;;;0.80;;
74945;SDS011;63509;45.250;38.102;2023-12-28T10:33:42;1.83;;;0.70;;
74945;SDS011;63509;45.250;38.102;2023-12-28T10:36:10;7.72;;;1.33;;
74945;SDS011;63509;45.250;38.102;2023-12-28T10:38:38;2.85;;;0.73;;
74945;SDS011;63509;45.250;38.102;2023-12-28T10:41:09;3.00;;;0.90;;
74945;SDS011;63509;45.250;38.102;2023-12-28T10:43:46;4.38;;;0.73;;
74945;SDS011;63509;45.250;38.102;2023-12-28T10:46:22;4.35;;;0.95;;
74945;SDS011;63509;45.250;38.102;2023-12-28T10:48:57;7.40;;;1.15;;
74945;SDS011;63509;45.250;38.102;2023-12-28T10:51:44;1.48;;;0.52;;
74945;SDS011;63509;45.250;38.102;2023-12-28T10:56:47;2.90;;;1.02;;
74945;SDS011;63509;45.250;38.102;2023-12-28T11:02:03;3.35;;;0.80;;
74945;SDS011;63509;45.250;38.102;2023-12-28T11:04:34;4.78;;;0.77;;
74945;SDS011;63509;45.250;38.102;2023-12-28T11:07:10;7.28;;;1.42;;
74945;SDS011;63509;45.250;38.102;2023-12-28T11:09:44;1.75;;;0.70;;
74945;SDS011;63509;45.250;38.102;2023-12-28T11:12:11;4.32;;;1.00;;
74945;SDS011;63509;45.250;38.102;2023-12-28T11:14:39;2.25;;;0.52;;
74945;SDS011;63509;45.250;38.102;2023-12-28T11:17:06;3.65;;;0.77;;
74945;SDS011;63509;45.250;38.102;2023-12-28T11:19:33;2.72;;;1.13;;
74945;SDS011;63509;45.250;38.102;2023-12-28T11:22:15;6.68;;;1.00;;
74945;SDS011;63509;45.250;38.102;2023-12-28T11:27:43;4.05;;;1.13;;
74945;SDS011;63509;45.250;38.102;2023-12-28T11:30:10;1.63;;;0.60;;
74945;SDS011;63509;45.250;38.102;2023-12-28T11:32:36;5.72;;;0.60;;
74945;SDS011;63509;45.250;38.102;2023-12-28T11:35:02;4.35;;;0.65;;
74945;SDS011;63509;45.250;38.102;2023-12-28T11:37:35;1.13;;;0.55;;
74945;SDS011;63509;45.250;38.102;2023-12-28T11:40:11;2.80;;;0.55;;
74945;SDS011;63509;45.250;38.102;2023-12-28T11:42:50;1.75;;;0.85;;
74945;SDS011;63509;45.250;38.102;2023-12-28T11:45:20;1.52;;;0.70;;
74945;SDS011;63509;45.250;38.102;2023-12-28T11:48:09;4.38;;;0.98;;
74945;SDS011;63509;45.250;38.102;2023-12-28T11:50:34;2.85;;;1.05;;
74945;SDS011;63509;45.250;38.102;2023-12-28T11:53:01;2.35;;;1.17;;
74945;SDS011;63509;45.250;38.102;2023-12-28T11:55:27;5.80;;;1.13;;
74945;SDS011;63509;45.250;38.102;2023-12-28T11:57:53;2.80;;;0.93;;
74945;SDS011;63509;45.250;38.102;2023-12-28T12:00:19;9.60;;;1.40;;
74945;SDS011;63509;45.250;38.102;2023-12-28T12:02:51;2.33;;;0.80;;
74945;SDS011;63509;45.250;38.102;2023-12-28T12:05:17;1.92;;;0.63;;
74945;SDS011;63509;45.250;38.102;2023-12-28T12:07:43;1.75;;;0.65;;
74945;SDS011;63509;45.250;38.102;2023-12-28T12:10:14;6.40;;;0.75;;
74945;SDS011;63509;45.250;38.102;2023-12-28T12:12:40;2.25;;;0.70;;
74945;SDS011;63509;45.250;38.102;2023-12-28T12:15:07;2.28;;;1.20;;
74945;SDS011;63509;45.250;38.102;2023-12-28T12:17:34;3.50;;;1.02;;
74945;SDS011;63509;45.250;38.102;2023-12-28T12:20:00;2.15;;;1.05;;
74945;SDS011;63509;45.250;38.102;2023-12-28T12:22:27;1.00;;;0.60;;
74945;SDS011;63509;45.250;38.102;2023-12-28T12:24:53;1.33;;;0.50;;
74945;SDS011;63509;45.250;38.102;2023-12-28T12:27:21;1.50;;;0.45;;
74945;SDS011;63509;45.250;38.102;2023-12-28T12:29:48;2.63;;;0.50;;
74945;SDS011;63509;45.250;38.102;2023-12-28T12:32:14;5.63;;;0.60;;
74945;SDS011;63509;45.250;38.102;2023-12-28T12:34:40;4.00;;;1.40;;
74945;SDS011;63509;45.250;38.102;2023-12-28T12:37:06;2.90;;;0.73;;
74945;SDS011;63509;45.250;38.102;2023-12-28T12:39:32;1.50;;;0.82;;
74945;SDS011;63509;45.250;38.102;2023-12-28T12:42:00;2.33;;;0.80;;
74945;SDS011;63509;45.250;38.102;2023-12-28T12:44:26;2.17;;;1.00;;
74945;SDS011;63509;45.250;38.102;2023-12-28T12:46:56;2.90;;;0.70;;
74945;SDS011;63509;45.250;38.102;2023-12-28T12:49:24;2.25;;;0.85;;
74945;SDS011;63509;45.250;38.102;2023-12-28T12:51:53;6.57;;;0.93;;
74945;SDS011;63509;45.250;38.102;2023-12-28T12:54:20;3.70;;;1.17;;
74945;SDS011;63509;45.250;38.102;2023-12-28T12:56:47;4.97;;;1.25;;
74945;SDS011;63509;45.250;38.102;2023-12-28T12:59:17;12.35;;;2.58;;
74945;SDS011;63509;45.250;38.102;2023-12-28T13:01:46;6.53;;;1.88;;
74945;SDS011;63509;45.250;38.102;2023-12-28T13:04:18;4.78;;;1.92;;
74945;SDS011;63509;45.250;38.102;2023-12-28T13:06:45;4.38;;;1.60;;
74945;SDS011;63509;45.250;38.102;2023-12-28T13:09:11;7.65;;;1.63;;
74945;SDS011;63509;45.250;38.102;2023-12-28T13:11:38;2.35;;;1.00;;
74945;SDS011;63509;45.250;38.102;2023-12-28T13:14:04;5.80;;;1.55;;
74945;SDS011;63509;45.250;38.102;2023-12-28T13:16:30;2.85;;;1.70;;
74945;SDS011;63509;45.250;38.102;2023-12-28T13:18:57;4.97;;;1.75;;
74945;SDS011;63509;45.250;38.102;2023-12-28T13:21:23;8.07;;;1.15;;
74945;SDS011;63509;45.250;38.102;2023-12-28T13:23:49;3.50;;;1.40;;
74945;SDS011;63509;45.250;38.102;2023-12-28T13:26:15;4.40;;;0.60;;
74945;SDS011;63509;45.250;38.102;2023-12-28T13:28:42;7.65;;;1.38;;
74945;SDS011;63509;45.250;38.102;2023-12-28T13:31:08;7.35;;;0.95;;
74945;SDS011;63509;45.250;38.102;2023-12-28T13:33:34;1.88;;;0.65;;
74945;SDS011;63509;45.250;38.102;2023-12-28T13:36:01;1.35;;;0.68;;
74945;SDS011;63509;45.250;38.102;2023-12-28T13:38:28;4.70;;;1.52;;
74945;SDS011;63509;45.250;38.102;2023-12-28T13:40:54;16.77;;;1.95;;
74945;SDS011;63509;45.250;38.102;2023-12-28T13:43:21;4.82;;;1.58;;
74945;SDS011;63509;45.250;38.102;2023-12-28T13:45:49;3.08;;;1.48;;
74945;SDS011;63509;45.250;38.102;2023-12-28T13:48:16;6.18;;;1.65;;
74945;SDS011;63509;45.250;38.102;2023-12-28T13:50:42;6.20;;;2.65;;
74945;SDS011;63509;45.250;38.102;2023-12-28T13:53:09;9.13;;;3.30;;
74945;SDS011;63509;45.250;38.102;2023-12-28T13:55:38;11.27;;;1.98;;
74945;SDS011;63509;45.250;38.102;2023-12-28T14:00:31;4.90;;;2.28;;
74945;SDS011;63509;45.250;38.102;2023-12-28T14:02:57;4.50;;;1.80;;
74945;SDS011;63509;45.250;38.102;2023-12-28T14:05:24;6.40;;;2.17;;
74945;SDS011;63509;45.250;38.102;2023-12-28T14:07:51;11.25;;;2.92;;
74945;SDS011;63509;45.250;38.102;2023-12-28T14:10:17;10.50;;;2.42;;
74945;SDS011;63509;45.250;38.102;2023-12-28T14:12:44;8.77;;;2.15;;
74945;SDS011;63509;45.250;38.102;2023-12-28T14:15:10;7.20;;;2.55;;
74945;SDS011;63509;45.250;38.102;2023-12-28T14:17:36;16.33;;;3.65;;
74945;SDS011;63509;45.250;38.102;2023-12-28T14:20:02;10.02;;;4.25;;
74945;SDS011;63509;45.250;38.102;2023-12-28T14:22:29;13.57;;;5.88;;
74945;SDS011;63509;45.250;38.102;2023-12-28T14:24:56;12.57;;;5.88;;
74945;SDS011;63509;45.250;38.102;2023-12-28T14:27:22;23.83;;;6.18;;
74945;SDS011;63509;45.250;38.102;2023-12-28T14:29:49;11.23;;;7.57;;
74945;SDS011;63509;45.250;38.102;2023-12-28T14:32:19;21.17;;;11.23;;
74945;SDS011;63509;45.250;38.102;2023-12-28T14:34:49;20.13;;;8.85;;
74945;SDS011;63509;45.250;38.102;2023-12-28T14:37:15;13.57;;;6.53;;
74945;SDS011;63509;45.250;38.102;2023-12-28T14:39:43;16.60;;;8.00;;
74945;SDS011;63509;45.250;38.102;2023-12-28T14:42:09;17.17;;;8.60;;
74945;SDS011;63509;45.250;38.102;2023-12-28T14:44:36;8.95;;;5.53;;
74945;SDS011;63509;45.250;38.102;2023-12-28T14:47:02;14.35;;;5.05;;
74945;SDS011;63509;45.250;38.102;2023-12-28T14:49:29;11.00;;;5.80;;
74945;SDS011;63509;45.250;38.102;2023-12-28T14:51:55;15.00;;;6.15;;
74945;SDS011;63509;45.250;38.102;2023-12-28T14:54:22;8.30;;;4.20;;
74945;SDS011;63509;45.250;38.102;2023-12-28T14:56:49;29.90;;;5.65;;
74945;SDS011;63509;45.250;38.102;2023-12-28T14:59:15;17.25;;;3.97;;
74945;SDS011;63509;45.250;38.102;2023-12-28T15:01:41;13.60;;;4.07;;
74945;SDS011;63509;45.250;38.102;2023-12-28T15:04:07;9.50;;;4.07;;
74945;SDS011;63509;45.250;38.102;2023-12-28T15:06:34;11.80;;;2.30;;
74945;SDS011;63509;45.250;38.102;2023-12-28T15:09:01;20.65;;;3.25;;
74945;SDS011;63509;45.250;38.102;2023-12-28T15:11:27;38.22;;;3.00;;